sensor_id;sensor_type;location;lat;lon;timestamp;P1;durP1;ratioP1;P2;durP2;ratioP2
4102;SDS011;2065;49.790;9.620;2022-10-31T00:00:14;51.73;;;11.43;;
4102;SDS011;2065;49.790;9.620;2022-10-31T00:02:41;50.40;;;11.30;;
4102;SDS011;2065;49.790;9.620;2022-10-31T00:05:10;20.10;;;8.03;;
4102;SDS011;2065;49.790;9.620;2022-10-31T00:07:37;33.93;;;9.97;;
4102;SDS011;2065;49.790;9.620;2022-10-31T00:10:05;19.97;;;7.97;;
4102;SDS011;2065;49.790;9.620;2022-10-31T00:12:33;84.07;;;10.13;;
4102;SDS011;2065;49.790;9.620;2022-10-31T00:15:00;28.83;;;9.43;;
4102;SDS011;2065;49.790;9.620;2022-10-31T00:17:27;43.37;;;9.23;;
4102;SDS011;2065;49.790;9.620;2022-10-31T00:19:54;25.43;;;8.37;;
4102;SDS011;2065;49.790;9.620;2022-10-31T00:22:23;17.80;;;8.50;;
4102;SDS011;2065;49.790;9.620;2022-10-31T00:24:51;53.17;;;12.60;;
4102;SDS011;2065;49.790;9.620;2022-10-31T00:27:18;29.47;;;8.97;;
4102;SDS011;2065;49.790;9.620;2022-10-31T00:29:45;36.33;;;9.30;;
4102;SDS011;2065;49.790;9.620;2022-10-31T00:32:12;28.70;;;9.67;;
4102;SDS011;2065;49.790;9.620;2022-10-31T00:34:39;85.40;;;10.30;;
4102;SDS011;2065;49.790;9.620;2022-10-31T00:37:06;31.53;;;9.20;;
4102;SDS011;2065;49.790;9.620;2022-10-31T00:39:36;75.07;;;10.33;;
4102;SDS011;2065;49.790;9.620;2022-10-31T00:42:03;47.30;;;11.77;;
4102;SDS011;2065;49.790;9.620;2022-10-31T00:44:30;36.87;;;8.97;;
4102;SDS011;2065;49.790;9.620;2022-10-31T00:46:57;19.93;;;7.70;;
4102;SDS011;2065;49.790;9.620;2022-10-31T00:49:24;21.63;;;8.20;;
4102;SDS011;2065;49.790;9.620;2022-10-31T00:51:51;31.53;;;8.60;;
4102;SDS011;2065;49.790;9.620;2022-10-31T00:54:18;17.73;;;7.87;;
4102;SDS011;2065;49.790;9.620;2022-10-31T00:56:47;36.47;;;9.47;;
4102;SDS011;2065;49.790;9.620;2022-10-31T00:59:13;42.93;;;9.70;;
4102;SDS011;2065;49.790;9.620;2022-10-31T01:01:40;116.33;;;14.83;;
4102;SDS011;2065;49.790;9.620;2022-10-31T01:04:07;10.93;;;7.30;;
4102;SDS011;2065;49.790;9.620;2022-10-31T01:06:34;97.33;;;11.20;;
4102;SDS011;2065;49.790;9.620;2022-10-31T01:09:02;20.23;;;7.67;;
4102;SDS011;2065;49.790;9.620;2022-10-31T01:11:29;54.83;;;9.23;;
4102;SDS011;2065;49.790;9.620;2022-10-31T01:13:57;71.40;;;11.30;;
4102;SDS011;2065;49.790;9.620;2022-10-31T01:16:25;28.03;;;7.77;;
4102;SDS011;2065;49.790;9.620;2022-10-31T01:18:55;34.50;;;7.30;;
4102;SDS011;2065;49.790;9.620;2022-10-31T01:21:26;42.23;;;7.50;;
4102;SDS011;2065;49.790;9.620;2022-10-31T01:23:57;41.17;;;7.87;;
4102;SDS011;2065;49.790;9.620;2022-10-31T01:26:25;24.57;;;7.00;;
4102;SDS011;2065;49.790;9.620;2022-10-31T01:28:55;24.33;;;6.53;;
4102;SDS011;2065;49.790;9.620;2022-10-31T01:31:25;15.33;;;6.70;;
4102;SDS011;2065;49.790;9.620;2022-10-31T01:33:55;50.57;;;8.00;;
4102;SDS011;2065;49.790;9.620;2022-10-31T01:36:23;41.67;;;7.03;;
4102;SDS011;2065;49.790;9.620;2022-10-31T01:38:53;74.60;;;9.17;;
4102;SDS011;2065;49.790;9.620;2022-10-31T01:41:23;23.90;;;7.20;;
4102;SDS011;2065;49.790;9.620;2022-10-31T01:43:53;48.40;;;8.50;;
4102;SDS011;2065;49.790;9.620;2022-10-31T01:46:22;83.00;;;9.33;;
4102;SDS011;2065;49.790;9.620;2022-10-31T01:48:55;14.10;;;5.93;;
4102;SDS011;2065;49.790;9.620;2022-10-31T01:51:26;17.07;;;5.97;;
4102;SDS011;2065;49.790;9.620;2022-10-31T01:53:58;61.80;;;9.03;;
4102;SDS011;2065;49.790;9.620;2022-10-31T01:56:28;10.70;;;5.00;;
4102;SDS011;2065;49.790;9.620;2022-10-31T01:58:55;114.60;;;11.77;;
4102;SDS011;2065;49.790;9.620;2022-10-31T02:01:26;29.17;;;6.30;;
4102;SDS011;2065;49.790;9.620;2022-10-31T02:03:54;37.90;;;6.57;;
4102;SDS011;2065;49.790;9.620;2022-10-31T02:06:26;33.00;;;7.10;;
4102;SDS011;2065;49.790;9.620;2022-10-31T02:08:59;60.83;;;9.30;;
4102;SDS011;2065;49.790;9.620;2022-10-31T02:11:29;32.63;;;6.63;;
4102;SDS011;2065;49.790;9.620;2022-10-31T02:13:57;50.23;;;7.23;;
4102;SDS011;2065;49.790;9.620;2022-10-31T02:16:27;39.67;;;6.70;;
4102;SDS011;2065;49.790;9.620;2022-10-31T02:18:54;22.47;;;5.73;;
4102;SDS011;2065;49.790;9.620;2022-10-31T02:21:23;11.67;;;4.60;;
4102;SDS011;2065;49.790;9.620;2022-10-31T02:24:02;11.23;;;5.43;;
4102;SDS011;2065;49.790;9.620;2022-10-31T02:26:56;21.43;;;5.43;;
4102;SDS011;2065;49.790;9.620;2022-10-31T02:29:52;72.47;;;8.13;;
4102;SDS011;2065;49.790;9.620;2022-10-31T02:32:32;12.20;;;5.07;;
4102;SDS011;2065;49.790;9.620;2022-10-31T02:35:23;38.80;;;6.43;;
4102;SDS011;2065;49.790;9.620;2022-10-31T02:38:01;53.80;;;6.90;;
4102;SDS011;2065;49.790;9.620;2022-10-31T02:40:35;16.93;;;5.30;;
4102;SDS011;2065;49.790;9.620;2022-10-31T02:43:26;25.50;;;5.90;;
4102;SDS011;2065;49.790;9.620;2022-10-31T02:45:58;46.27;;;6.73;;
4102;SDS011;2065;49.790;9.620;2022-10-31T02:48:35;25.23;;;5.90;;
4102;SDS011;2065;49.790;9.620;2022-10-31T02:51:05;20.37;;;5.70;;
4102;SDS011;2065;49.790;9.620;2022-10-31T02:53:35;18.53;;;5.83;;
4102;SDS011;2065;49.790;9.620;2022-10-31T02:56:06;23.00;;;6.03;;
4102;SDS011;2065;49.790;9.620;2022-10-31T02:58:38;36.47;;;8.10;;
4102;SDS011;2065;49.790;9.620;2022-10-31T03:01:27;78.80;;;9.30;;
4102;SDS011;2065;49.790;9.620;2022-10-31T03:07:25;22.10;;;6.07;;
4102;SDS011;2065;49.790;9.620;2022-10-31T03:10:00;26.63;;;5.77;;
4102;SDS011;2065;49.790;9.620;2022-10-31T03:12:35;22.30;;;5.03;;
4102;SDS011;2065;49.790;9.620;2022-10-31T03:15:10;12.70;;;5.47;;
4102;SDS011;2065;49.790;9.620;2022-10-31T03:17:46;23.47;;;6.10;;
4102;SDS011;2065;49.790;9.620;2022-10-31T03:20:19;24.53;;;5.47;;
4102;SDS011;2065;49.790;9.620;2022-10-31T03:22:52;20.40;;;5.37;;
4102;SDS011;2065;49.790;9.620;2022-10-31T03:25:21;27.47;;;6.27;;
4102;SDS011;2065;49.790;9.620;2022-10-31T03:27:49;15.60;;;5.50;;
4102;SDS011;2065;49.790;9.620;2022-10-31T03:30:18;24.20;;;5.93;;
4102;SDS011;2065;49.790;9.620;2022-10-31T03:32:54;22.17;;;6.90;;
4102;SDS011;2065;49.790;9.620;2022-10-31T03:35:24;27.60;;;6.10;;
4102;SDS011;2065;49.790;9.620;2022-10-31T03:37:55;15.83;;;5.83;;
4102;SDS011;2065;49.790;9.620;2022-10-31T03:40:26;23.20;;;5.70;;
4102;SDS011;2065;49.790;9.620;2022-10-31T03:42:55;36.33;;;5.40;;
4102;SDS011;2065;49.790;9.620;2022-10-31T03:45:27;28.43;;;5.77;;
4102;SDS011;2065;49.790;9.620;2022-10-31T03:47:56;50.93;;;6.90;;
4102;SDS011;2065;49.790;9.620;2022-10-31T03:50:24;56.10;;;8.60;;
4102;SDS011;2065;49.790;9.620;2022-10-31T03:53:03;27.93;;;7.90;;
4102;SDS011;2065;49.790;9.620;2022-10-31T03:55:37;33.87;;;6.40;;
4102;SDS011;2065;49.790;9.620;2022-10-31T03:58:08;52.60;;;6.10;;
4102;SDS011;2065;49.790;9.620;2022-10-31T04:00:38;31.30;;;6.53;;
4102;SDS011;2065;49.790;9.620;2022-10-31T04:03:11;27.30;;;6.63;;
4102;SDS011;2065;49.790;9.620;2022-10-31T04:05:44;33.07;;;6.30;;
4102;SDS011;2065;49.790;9.620;2022-10-31T04:08:16;10.33;;;4.77;;
4102;SDS011;2065;49.790;9.620;2022-10-31T04:10:47;74.53;;;9.33;;
4102;SDS011;2065;49.790;9.620;2022-10-31T04:13:17;17.13;;;5.53;;
4102;SDS011;2065;49.790;9.620;2022-10-31T04:15:56;30.20;;;5.60;;
4102;SDS011;2065;49.790;9.620;2022-10-31T04:18:24;24.17;;;5.83;;
4102;SDS011;2065;49.790;9.620;2022-10-31T04:20:59;64.93;;;8.10;;
4102;SDS011;2065;49.790;9.620;2022-10-31T04:23:28;67.30;;;7.20;;
4102;SDS011;2065;49.790;9.620;2022-10-31T04:25:57;25.67;;;5.47;;
4102;SDS011;2065;49.790;9.620;2022-10-31T04:28:24;62.97;;;8.10;;
4102;SDS011;2065;49.790;9.620;2022-10-31T04:30:51;67.93;;;8.43;;
4102;SDS011;2065;49.790;9.620;2022-10-31T04:33:18;21.40;;;5.40;;
4102;SDS011;2065;49.790;9.620;2022-10-31T04:35:46;28.73;;;6.80;;
4102;SDS011;2065;49.790;9.620;2022-10-31T04:38:13;65.13;;;8.43;;
4102;SDS011;2065;49.790;9.620;2022-10-31T04:40:44;38.67;;;7.03;;
4102;SDS011;2065;49.790;9.620;2022-10-31T04:43:43;30.07;;;7.20;;
4102;SDS011;2065;49.790;9.620;2022-10-31T04:46:12;48.90;;;5.80;;
4102;SDS011;2065;49.790;9.620;2022-10-31T04:48:39;51.80;;;7.33;;
4102;SDS011;2065;49.790;9.620;2022-10-31T04:51:06;52.80;;;7.10;;
4102;SDS011;2065;49.790;9.620;2022-10-31T04:53:33;33.17;;;5.90;;
4102;SDS011;2065;49.790;9.620;2022-10-31T04:56:40;14.53;;;5.17;;
4102;SDS011;2065;49.790;9.620;2022-10-31T04:59:15;20.33;;;5.20;;
4102;SDS011;2065;49.790;9.620;2022-10-31T05:01:48;34.50;;;7.50;;
4102;SDS011;2065;49.790;9.620;2022-10-31T05:04:19;71.63;;;9.40;;
4102;SDS011;2065;49.790;9.620;2022-10-31T05:06:46;79.70;;;7.90;;
4102;SDS011;2065;49.790;9.620;2022-10-31T05:09:13;185.57;;;14.73;;
4102;SDS011;2065;49.790;9.620;2022-10-31T05:11:43;21.70;;;5.30;;
4102;SDS011;2065;49.790;9.620;2022-10-31T05:14:25;29.27;;;5.70;;
4102;SDS011;2065;49.790;9.620;2022-10-31T05:17:15;31.87;;;6.03;;
4102;SDS011;2065;49.790;9.620;2022-10-31T05:20:21;64.00;;;7.80;;
4102;SDS011;2065;49.790;9.620;2022-10-31T05:23:15;43.00;;;6.67;;
4102;SDS011;2065;49.790;9.620;2022-10-31T05:25:42;42.77;;;6.87;;
4102;SDS011;2065;49.790;9.620;2022-10-31T05:28:12;75.63;;;9.63;;
4102;SDS011;2065;49.790;9.620;2022-10-31T05:30:39;58.90;;;6.00;;
4102;SDS011;2065;49.790;9.620;2022-10-31T05:33:10;36.60;;;6.70;;
4102;SDS011;2065;49.790;9.620;2022-10-31T05:36:03;24.47;;;5.57;;
4102;SDS011;2065;49.790;9.620;2022-10-31T05:38:34;55.10;;;8.30;;
4102;SDS011;2065;49.790;9.620;2022-10-31T05:41:09;53.03;;;7.83;;
4102;SDS011;2065;49.790;9.620;2022-10-31T05:43:41;36.37;;;5.77;;
4102;SDS011;2065;49.790;9.620;2022-10-31T05:46:08;74.33;;;8.70;;
4102;SDS011;2065;49.790;9.620;2022-10-31T05:49:14;142.53;;;13.50;;
4102;SDS011;2065;49.790;9.620;2022-10-31T05:52:11;32.43;;;5.57;;
4102;SDS011;2065;49.790;9.620;2022-10-31T05:54:47;15.80;;;5.00;;
4102;SDS011;2065;49.790;9.620;2022-10-31T05:57:14;14.47;;;5.43;;
4102;SDS011;2065;49.790;9.620;2022-10-31T05:59:42;49.17;;;7.10;;
4102;SDS011;2065;49.790;9.620;2022-10-31T06:02:09;62.93;;;6.77;;
4102;SDS011;2065;49.790;9.620;2022-10-31T06:04:55;39.47;;;6.90;;
4102;SDS011;2065;49.790;9.620;2022-10-31T06:07:22;33.33;;;6.23;;
4102;SDS011;2065;49.790;9.620;2022-10-31T06:09:49;93.20;;;8.63;;
4102;SDS011;2065;49.790;9.620;2022-10-31T06:12:19;38.57;;;6.40;;
4102;SDS011;2065;49.790;9.620;2022-10-31T06:15:07;32.57;;;5.97;;
4102;SDS011;2065;49.790;9.620;2022-10-31T06:17:34;27.23;;;5.53;;
4102;SDS011;2065;49.790;9.620;2022-10-31T06:20:28;63.50;;;6.97;;
4102;SDS011;2065;49.790;9.620;2022-10-31T06:23:00;33.47;;;5.13;;
4102;SDS011;2065;49.790;9.620;2022-10-31T06:25:28;55.17;;;7.87;;
4102;SDS011;2065;49.790;9.620;2022-10-31T06:27:55;42.70;;;7.00;;
4102;SDS011;2065;49.790;9.620;2022-10-31T06:30:28;56.17;;;9.50;;
4102;SDS011;2065;49.790;9.620;2022-10-31T06:33:01;80.40;;;8.83;;
4102;SDS011;2065;49.790;9.620;2022-10-31T06:35:28;71.30;;;8.73;;
4102;SDS011;2065;49.790;9.620;2022-10-31T06:37:56;40.40;;;7.47;;
4102;SDS011;2065;49.790;9.620;2022-10-31T06:40:36;38.53;;;5.03;;
4102;SDS011;2065;49.790;9.620;2022-10-31T06:43:16;22.97;;;4.67;;
4102;SDS011;2065;49.790;9.620;2022-10-31T06:45:44;12.77;;;3.53;;
4102;SDS011;2065;49.790;9.620;2022-10-31T06:48:35;3.03;;;2.83;;
4102;SDS011;2065;49.790;9.620;2022-10-31T06:51:17;3.67;;;3.10;;
4102;SDS011;2065;49.790;9.620;2022-10-31T06:53:44;3.53;;;3.23;;
4102;SDS011;2065;49.790;9.620;2022-10-31T06:56:14;3.23;;;2.93;;
4102;SDS011;2065;49.790;9.620;2022-10-31T06:58:46;3.50;;;3.20;;
4102;SDS011;2065;49.790;9.620;2022-10-31T07:01:16;3.20;;;3.00;;
4102;SDS011;2065;49.790;9.620;2022-10-31T07:03:43;3.10;;;2.90;;
4102;SDS011;2065;49.790;9.620;2022-10-31T07:06:10;3.67;;;3.07;;
4102;SDS011;2065;49.790;9.620;2022-10-31T07:08:38;3.60;;;3.30;;
4102;SDS011;2065;49.790;9.620;2022-10-31T07:11:06;3.87;;;3.57;;
4102;SDS011;2065;49.790;9.620;2022-10-31T07:13:33;5.50;;;3.60;;
4102;SDS011;2065;49.790;9.620;2022-10-31T07:16:05;7.30;;;3.90;;
4102;SDS011;2065;49.790;9.620;2022-10-31T07:18:35;4.90;;;4.40;;
4102;SDS011;2065;49.790;9.620;2022-10-31T07:21:03;7.80;;;4.47;;
4102;SDS011;2065;49.790;9.620;2022-10-31T07:23:30;5.10;;;4.33;;
4102;SDS011;2065;49.790;9.620;2022-10-31T07:26:36;12.63;;;4.63;;
4102;SDS011;2065;49.790;9.620;2022-10-31T07:29:03;8.30;;;7.50;;
4102;SDS011;2065;49.790;9.620;2022-10-31T07:31:30;4.97;;;4.40;;
4102;SDS011;2065;49.790;9.620;2022-10-31T07:34:04;9.70;;;4.60;;
4102;SDS011;2065;49.790;9.620;2022-10-31T07:36:34;8.37;;;5.40;;
4102;SDS011;2065;49.790;9.620;2022-10-31T07:39:03;7.00;;;4.93;;
4102;SDS011;2065;49.790;9.620;2022-10-31T07:41:33;13.83;;;5.93;;
4102;SDS011;2065;49.790;9.620;2022-10-31T07:44:00;7.27;;;5.00;;
4102;SDS011;2065;49.790;9.620;2022-10-31T07:47:05;11.20;;;4.97;;
4102;SDS011;2065;49.790;9.620;2022-10-31T07:50:09;13.10;;;6.03;;
4102;SDS011;2065;49.790;9.620;2022-10-31T07:53:00;5.90;;;5.30;;
4102;SDS011;2065;49.790;9.620;2022-10-31T07:55:43;7.40;;;5.90;;
4102;SDS011;2065;49.790;9.620;2022-10-31T07:58:13;17.80;;;5.60;;
4102;SDS011;2065;49.790;9.620;2022-10-31T08:00:42;12.00;;;5.17;;
4102;SDS011;2065;49.790;9.620;2022-10-31T08:03:14;11.03;;;5.47;;
4102;SDS011;2065;49.790;9.620;2022-10-31T08:06:02;23.90;;;6.73;;
4102;SDS011;2065;49.790;9.620;2022-10-31T08:08:52;19.57;;;5.97;;
4102;SDS011;2065;49.790;9.620;2022-10-31T08:11:19;19.83;;;6.70;;
4102;SDS011;2065;49.790;9.620;2022-10-31T08:13:47;9.97;;;5.97;;
4102;SDS011;2065;49.790;9.620;2022-10-31T08:16:14;10.30;;;6.30;;
4102;SDS011;2065;49.790;9.620;2022-10-31T08:18:52;7.17;;;5.77;;
4102;SDS011;2065;49.790;9.620;2022-10-31T08:21:22;13.07;;;8.10;;
4102;SDS011;2065;49.790;9.620;2022-10-31T08:23:49;17.40;;;7.10;;
4102;SDS011;2065;49.790;9.620;2022-10-31T08:26:19;27.30;;;6.60;;
4102;SDS011;2065;49.790;9.620;2022-10-31T08:28:48;14.67;;;6.73;;
4102;SDS011;2065;49.790;9.620;2022-10-31T08:31:16;15.40;;;6.60;;
4102;SDS011;2065;49.790;9.620;2022-10-31T08:34:03;17.17;;;11.67;;
4102;SDS011;2065;49.790;9.620;2022-10-31T08:36:50;13.23;;;7.17;;
4102;SDS011;2065;49.790;9.620;2022-10-31T08:39:27;11.90;;;7.07;;
4102;SDS011;2065;49.790;9.620;2022-10-31T08:41:54;13.13;;;6.93;;
4102;SDS011;2065;49.790;9.620;2022-10-31T08:44:21;18.70;;;8.10;;
4102;SDS011;2065;49.790;9.620;2022-10-31T08:46:48;14.20;;;8.93;;
4102;SDS011;2065;49.790;9.620;2022-10-31T08:49:15;14.20;;;8.43;;
4102;SDS011;2065;49.790;9.620;2022-10-31T08:51:43;14.57;;;8.37;;
4102;SDS011;2065;49.790;9.620;2022-10-31T08:54:11;8.87;;;7.40;;
4102;SDS011;2065;49.790;9.620;2022-10-31T08:56:53;10.47;;;6.33;;
4102;SDS011;2065;49.790;9.620;2022-10-31T08:59:39;18.27;;;10.80;;
4102;SDS011;2065;49.790;9.620;2022-10-31T09:02:35;9.30;;;6.83;;
4102;SDS011;2065;49.790;9.620;2022-10-31T09:05:04;12.83;;;6.97;;
4102;SDS011;2065;49.790;9.620;2022-10-31T09:07:32;9.83;;;7.03;;
4102;SDS011;2065;49.790;9.620;2022-10-31T09:10:01;8.77;;;6.63;;
4102;SDS011;2065;49.790;9.620;2022-10-31T09:12:31;7.57;;;6.33;;
4102;SDS011;2065;49.790;9.620;2022-10-31T09:15:07;9.77;;;6.60;;
4102;SDS011;2065;49.790;9.620;2022-10-31T09:17:45;10.97;;;6.83;;
4102;SDS011;2065;49.790;9.620;2022-10-31T09:20:36;7.17;;;6.27;;
4102;SDS011;2065;49.790;9.620;2022-10-31T09:23:05;8.13;;;7.00;;
4102;SDS011;2065;49.790;9.620;2022-10-31T09:25:38;13.70;;;10.60;;
4102;SDS011;2065;49.790;9.620;2022-10-31T09:28:24;10.43;;;8.23;;
4102;SDS011;2065;49.790;9.620;2022-10-31T09:30:52;12.57;;;8.40;;
4102;SDS011;2065;49.790;9.620;2022-10-31T09:33:40;12.53;;;7.10;;
4102;SDS011;2065;49.790;9.620;2022-10-31T09:36:27;10.83;;;7.57;;
4102;SDS011;2065;49.790;9.620;2022-10-31T09:38:55;10.87;;;8.63;;
4102;SDS011;2065;49.790;9.620;2022-10-31T09:41:24;54.40;;;26.83;;
4102;SDS011;2065;49.790;9.620;2022-10-31T09:43:58;11.17;;;8.47;;
4102;SDS011;2065;49.790;9.620;2022-10-31T09:46:32;13.00;;;8.10;;
4102;SDS011;2065;49.790;9.620;2022-10-31T09:49:16;9.10;;;5.67;;
4102;SDS011;2065;49.790;9.620;2022-10-31T09:51:57;7.73;;;5.73;;
4102;SDS011;2065;49.790;9.620;2022-10-31T09:54:32;15.30;;;8.20;;
4102;SDS011;2065;49.790;9.620;2022-10-31T09:57:07;9.23;;;7.00;;
4102;SDS011;2065;49.790;9.620;2022-10-31T09:59:40;9.20;;;6.97;;
4102;SDS011;2065;49.790;9.620;2022-10-31T10:02:11;9.70;;;8.43;;
4102;SDS011;2065;49.790;9.620;2022-10-31T10:04:44;7.87;;;7.03;;
4102;SDS011;2065;49.790;9.620;2022-10-31T10:07:21;7.67;;;6.20;;
4102;SDS011;2065;49.790;9.620;2022-10-31T10:10:14;10.53;;;6.73;;
4102;SDS011;2065;49.790;9.620;2022-10-31T10:13:09;10.60;;;8.40;;
4102;SDS011;2065;49.790;9.620;2022-10-31T10:15:57;9.43;;;7.93;;
4102;SDS011;2065;49.790;9.620;2022-10-31T10:18:37;9.30;;;6.50;;
4102;SDS011;2065;49.790;9.620;2022-10-31T10:21:13;9.30;;;7.10;;
4102;SDS011;2065;49.790;9.620;2022-10-31T10:23:52;10.03;;;7.07;;
4102;SDS011;2065;49.790;9.620;2022-10-31T10:26:29;10.30;;;7.23;;
4102;SDS011;2065;49.790;9.620;2022-10-31T10:29:03;10.23;;;8.73;;
4102;SDS011;2065;49.790;9.620;2022-10-31T10:31:41;8.53;;;6.90;;
4102;SDS011;2065;49.790;9.620;2022-10-31T10:34:12;8.07;;;7.20;;
4102;SDS011;2065;49.790;9.620;2022-10-31T10:36:46;10.10;;;7.50;;
4102;SDS011;2065;49.790;9.620;2022-10-31T10:39:17;9.23;;;7.57;;
4102;SDS011;2065;49.790;9.620;2022-10-31T10:41:47;12.30;;;7.80;;
4102;SDS011;2065;49.790;9.620;2022-10-31T10:44:31;10.43;;;8.60;;
4102;SDS011;2065;49.790;9.620;2022-10-31T10:47:15;12.03;;;7.93;;
4102;SDS011;2065;49.790;9.620;2022-10-31T10:49:59;9.10;;;7.77;;
4102;SDS011;2065;49.790;9.620;2022-10-31T10:52:32;12.23;;;9.10;;
4102;SDS011;2065;49.790;9.620;2022-10-31T10:55:06;12.10;;;7.90;;
4102;SDS011;2065;49.790;9.620;2022-10-31T10:57:45;12.60;;;8.23;;
4102;SDS011;2065;49.790;9.620;2022-10-31T11:00:22;13.43;;;8.50;;
4102;SDS011;2065;49.790;9.620;2022-10-31T11:02:50;12.27;;;9.00;;
4102;SDS011;2065;49.790;9.620;2022-10-31T11:05:20;15.27;;;9.23;;
4102;SDS011;2065;49.790;9.620;2022-10-31T11:07:51;13.60;;;9.60;;
4102;SDS011;2065;49.790;9.620;2022-10-31T11:10:18;14.87;;;9.80;;
4102;SDS011;2065;49.790;9.620;2022-10-31T11:12:46;16.43;;;9.83;;
4102;SDS011;2065;49.790;9.620;2022-10-31T11:15:27;14.50;;;11.20;;
4102;SDS011;2065;49.790;9.620;2022-10-31T11:17:56;18.10;;;10.83;;
4102;SDS011;2065;49.790;9.620;2022-10-31T11:20:26;15.70;;;10.27;;
4102;SDS011;2065;49.790;9.620;2022-10-31T11:23:01;18.93;;;11.80;;
4102;SDS011;2065;49.790;9.620;2022-10-31T11:25:30;15.20;;;11.07;;
4102;SDS011;2065;49.790;9.620;2022-10-31T11:28:00;21.53;;;11.00;;
4102;SDS011;2065;49.790;9.620;2022-10-31T11:30:30;17.07;;;10.43;;
4102;SDS011;2065;49.790;9.620;2022-10-31T11:33:11;16.20;;;10.93;;
4102;SDS011;2065;49.790;9.620;2022-10-31T11:35:45;16.93;;;11.37;;
4102;SDS011;2065;49.790;9.620;2022-10-31T11:38:15;17.20;;;11.87;;
4102;SDS011;2065;49.790;9.620;2022-10-31T11:40:55;24.67;;;16.57;;
4102;SDS011;2065;49.790;9.620;2022-10-31T11:43:24;15.83;;;11.40;;
4102;SDS011;2065;49.790;9.620;2022-10-31T11:45:54;15.40;;;11.27;;
4102;SDS011;2065;49.790;9.620;2022-10-31T11:48:21;15.00;;;10.77;;
4102;SDS011;2065;49.790;9.620;2022-10-31T11:50:51;16.87;;;11.43;;
4102;SDS011;2065;49.790;9.620;2022-10-31T11:53:22;15.60;;;10.70;;
4102;SDS011;2065;49.790;9.620;2022-10-31T11:56:00;17.87;;;11.60;;
4102;SDS011;2065;49.790;9.620;2022-10-31T11:58:32;18.47;;;11.73;;
4102;SDS011;2065;49.790;9.620;2022-10-31T12:01:01;30.90;;;20.00;;
4102;SDS011;2065;49.790;9.620;2022-10-31T12:03:32;19.27;;;13.00;;
4102;SDS011;2065;49.790;9.620;2022-10-31T12:06:11;18.00;;;13.10;;
4102;SDS011;2065;49.790;9.620;2022-10-31T12:08:41;19.93;;;11.80;;
4102;SDS011;2065;49.790;9.620;2022-10-31T12:11:11;16.00;;;12.10;;
4102;SDS011;2065;49.790;9.620;2022-10-31T12:13:52;20.73;;;14.10;;
4102;SDS011;2065;49.790;9.620;2022-10-31T12:16:33;21.00;;;13.80;;
4102;SDS011;2065;49.790;9.620;2022-10-31T12:19:09;14.60;;;12.03;;
4102;SDS011;2065;49.790;9.620;2022-10-31T12:21:50;22.03;;;14.07;;
4102;SDS011;2065;49.790;9.620;2022-10-31T12:24:32;18.80;;;12.80;;
4102;SDS011;2065;49.790;9.620;2022-10-31T12:27:11;20.90;;;12.50;;
4102;SDS011;2065;49.790;9.620;2022-10-31T12:29:49;18.33;;;12.63;;
4102;SDS011;2065;49.790;9.620;2022-10-31T12:32:31;21.43;;;13.57;;
4102;SDS011;2065;49.790;9.620;2022-10-31T12:35:15;21.70;;;13.47;;
4102;SDS011;2065;49.790;9.620;2022-10-31T12:38:14;17.00;;;12.03;;
4102;SDS011;2065;49.790;9.620;2022-10-31T12:41:02;18.83;;;14.13;;
4102;SDS011;2065;49.790;9.620;2022-10-31T12:43:43;21.43;;;13.73;;
4102;SDS011;2065;49.790;9.620;2022-10-31T12:46:15;18.13;;;13.77;;
4102;SDS011;2065;49.790;9.620;2022-10-31T12:48:55;27.03;;;18.67;;
4102;SDS011;2065;49.790;9.620;2022-10-31T12:51:37;21.40;;;15.60;;
4102;SDS011;2065;49.790;9.620;2022-10-31T12:54:15;23.13;;;16.90;;
4102;SDS011;2065;49.790;9.620;2022-10-31T12:57:00;21.30;;;14.00;;
4102;SDS011;2065;49.790;9.620;2022-10-31T12:59:35;21.93;;;15.70;;
4102;SDS011;2065;49.790;9.620;2022-10-31T13:02:09;30.37;;;19.80;;
4102;SDS011;2065;49.790;9.620;2022-10-31T13:04:44;21.80;;;16.53;;
4102;SDS011;2065;49.790;9.620;2022-10-31T13:07:18;23.83;;;16.60;;
4102;SDS011;2065;49.790;9.620;2022-10-31T13:09:50;23.33;;;17.50;;
4102;SDS011;2065;49.790;9.620;2022-10-31T13:12:25;21.30;;;14.40;;
4102;SDS011;2065;49.790;9.620;2022-10-31T13:14:56;21.43;;;15.97;;
4102;SDS011;2065;49.790;9.620;2022-10-31T13:17:27;28.80;;;19.77;;
4102;SDS011;2065;49.790;9.620;2022-10-31T13:20:02;23.87;;;14.83;;
4102;SDS011;2065;49.790;9.620;2022-10-31T13:22:43;22.17;;;15.83;;
4102;SDS011;2065;49.790;9.620;2022-10-31T13:25:14;24.00;;;15.20;;
4102;SDS011;2065;49.790;9.620;2022-10-31T13:27:46;20.70;;;14.70;;
4102;SDS011;2065;49.790;9.620;2022-10-31T13:30:18;20.00;;;14.33;;
4102;SDS011;2065;49.790;9.620;2022-10-31T13:32:47;19.90;;;14.00;;
4102;SDS011;2065;49.790;9.620;2022-10-31T13:35:21;21.70;;;14.63;;
4102;SDS011;2065;49.790;9.620;2022-10-31T13:37:57;19.97;;;13.77;;
4102;SDS011;2065;49.790;9.620;2022-10-31T13:40:47;20.57;;;14.30;;
4102;SDS011;2065;49.790;9.620;2022-10-31T13:43:22;19.93;;;14.77;;
4102;SDS011;2065;49.790;9.620;2022-10-31T13:45:56;21.37;;;15.50;;
4102;SDS011;2065;49.790;9.620;2022-10-31T13:48:33;21.33;;;14.10;;
4102;SDS011;2065;49.790;9.620;2022-10-31T13:51:08;18.47;;;13.27;;
4102;SDS011;2065;49.790;9.620;2022-10-31T13:53:42;18.20;;;13.30;;
4102;SDS011;2065;49.790;9.620;2022-10-31T13:56:13;19.97;;;14.07;;
4102;SDS011;2065;49.790;9.620;2022-10-31T13:58:53;21.20;;;13.47;;
4102;SDS011;2065;49.790;9.620;2022-10-31T14:01:26;18.73;;;13.67;;
4102;SDS011;2065;49.790;9.620;2022-10-31T14:03:56;22.47;;;13.77;;
4102;SDS011;2065;49.790;9.620;2022-10-31T14:09:33;21.67;;;14.30;;
4102;SDS011;2065;49.790;9.620;2022-10-31T14:12:03;21.17;;;13.90;;
4102;SDS011;2065;49.790;9.620;2022-10-31T14:14:35;19.87;;;13.20;;
4102;SDS011;2065;49.790;9.620;2022-10-31T14:17:16;17.63;;;13.27;;
4102;SDS011;2065;49.790;9.620;2022-10-31T14:19:56;19.67;;;14.93;;
4102;SDS011;2065;49.790;9.620;2022-10-31T14:22:46;22.47;;;16.20;;
4102;SDS011;2065;49.790;9.620;2022-10-31T14:25:26;18.73;;;12.93;;
4102;SDS011;2065;49.790;9.620;2022-10-31T14:27:57;23.93;;;17.00;;
4102;SDS011;2065;49.790;9.620;2022-10-31T14:30:26;31.63;;;20.70;;
4102;SDS011;2065;49.790;9.620;2022-10-31T14:32:55;24.90;;;17.33;;
4102;SDS011;2065;49.790;9.620;2022-10-31T14:35:24;23.60;;;15.90;;
4102;SDS011;2065;49.790;9.620;2022-10-31T14:38:07;24.60;;;15.50;;
4102;SDS011;2065;49.790;9.620;2022-10-31T14:41:02;21.23;;;15.10;;
4102;SDS011;2065;49.790;9.620;2022-10-31T14:43:47;29.00;;;15.73;;
4102;SDS011;2065;49.790;9.620;2022-10-31T14:46:41;22.30;;;14.70;;
4102;SDS011;2065;49.790;9.620;2022-10-31T14:49:23;28.23;;;15.63;;
4102;SDS011;2065;49.790;9.620;2022-10-31T14:52:04;23.27;;;15.20;;
4102;SDS011;2065;49.790;9.620;2022-10-31T14:54:35;24.57;;;16.87;;
4102;SDS011;2065;49.790;9.620;2022-10-31T14:57:07;30.97;;;17.27;;
4102;SDS011;2065;49.790;9.620;2022-10-31T14:59:43;30.17;;;17.30;;
4102;SDS011;2065;49.790;9.620;2022-10-31T15:02:15;26.30;;;16.27;;
4102;SDS011;2065;49.790;9.620;2022-10-31T15:04:48;31.13;;;17.10;;
4102;SDS011;2065;49.790;9.620;2022-10-31T15:07:17;27.43;;;17.60;;
4102;SDS011;2065;49.790;9.620;2022-10-31T15:09:56;23.27;;;15.77;;
4102;SDS011;2065;49.790;9.620;2022-10-31T15:12:24;27.20;;;16.83;;
4102;SDS011;2065;49.790;9.620;2022-10-31T15:14:52;27.17;;;17.33;;
4102;SDS011;2065;49.790;9.620;2022-10-31T15:17:20;24.43;;;16.67;;
4102;SDS011;2065;49.790;9.620;2022-10-31T15:19:48;30.77;;;18.07;;
4102;SDS011;2065;49.790;9.620;2022-10-31T15:22:17;27.97;;;18.33;;
4102;SDS011;2065;49.790;9.620;2022-10-31T15:24:46;30.33;;;17.90;;
4102;SDS011;2065;49.790;9.620;2022-10-31T15:27:23;23.93;;;16.30;;
4102;SDS011;2065;49.790;9.620;2022-10-31T15:29:51;30.77;;;20.20;;
4102;SDS011;2065;49.790;9.620;2022-10-31T15:32:20;37.30;;;20.40;;
4102;SDS011;2065;49.790;9.620;2022-10-31T15:34:48;29.27;;;17.73;;
4102;SDS011;2065;49.790;9.620;2022-10-31T15:37:17;29.47;;;18.60;;
4102;SDS011;2065;49.790;9.620;2022-10-31T15:39:46;28.90;;;17.77;;
4102;SDS011;2065;49.790;9.620;2022-10-31T15:42:18;33.10;;;21.00;;
4102;SDS011;2065;49.790;9.620;2022-10-31T15:44:49;36.20;;;20.10;;